Time;durP1;ratioP1;P1;durP2;ratioP2;P2;SDS_P1;SDS_P2;PMS_P1;PMS_P2;Temp;Humidity;BMP_temperature;BMP_pressure;BME280_temperature;BME280_humidity;BME280_pressure;Samples;Min_cycle;Max_cycle;Signal;HPM_P1;HPM_P2
2021/08/01 00:01:28;;;;;;;1.00;1.00;;;16.40;99.90;;;;;;5016648;28;20414;-75
2021/08/01 00:03:53;;;;;;;1.40;1.30;;;16.40;99.90;;;;;;5015906;28;20491;-74
2021/08/01 00:06:19;;;;;;;1.80;1.70;;;16.30;99.90;;;;;;5007663;28;20433;-73
2021/08/01 00:08:45;;;;;;;2.23;1.90;;;16.30;99.90;;;;;;5053140;28;20430;-75
2021/08/01 00:11:11;;;;;;;1.60;1.50;;;16.30;99.90;;;;;;5022654;28;20406;-74
2021/08/01 00:13:37;;;;;;;2.33;1.50;;;16.20;99.90;;;;;;5039373;28;20425;-73
2021/08/01 00:16:03;;;;;;;1.63;1.20;;;16.20;99.90;;;;;;5020761;28;20975;-75
2021/08/01 00:18:29;;;;;;;1.33;1.20;;;16.20;99.90;;;;;;5041136;28;20410;-76
2021/08/01 00:20:55;;;;;;;1.05;1.05;;;16.20;99.90;;;;;;5038867;28;20407;-74
2021/08/01 00:23:22;;;;;;;1.00;1.00;;;16.20;99.90;;;;;;5044505;28;20473;-74
2021/08/01 00:25:49;;;;;;;1.00;1.00;;;16.20;99.90;;;;;;5013643;28;20396;-74
2021/08/01 00:28:15;;;;;;;1.23;1.20;;;16.20;99.90;;;;;;5038967;28;20410;-74
2021/08/01 00:30:41;;;;;;;0.82;0.82;;;16.20;99.90;;;;;;5019235;28;20416;-75
2021/08/01 00:33:07;;;;;;;0.97;0.97;;;16.20;99.90;;;;;;5032695;28;20397;-74
2021/08/01 00:35:33;;;;;;;0.75;0.75;;;16.20;99.90;;;;;;5033926;28;20427;-74
2021/08/01 00:38:00;;;;;;;0.75;0.75;;;16.20;99.90;;;;;;5027935;28;20454;-74
2021/08/01 00:40:26;;;;;;;0.95;0.95;;;16.20;99.90;;;;;;5027674;28;20408;-74
2021/08/01 00:42:51;;;;;;;0.98;0.98;;;16.20;99.90;;;;;;5035381;28;21214;-75
2021/08/01 00:45:17;;;;;;;1.20;1.02;;;16.20;99.90;;;;;;5038849;28;20425;-74
2021/08/01 00:47:43;;;;;;;0.80;0.80;;;16.20;99.90;;;;;;5013662;28;20417;-74
2021/08/01 00:50:10;;;;;;;1.52;1.10;;;16.20;99.90;;;;;;5017317;28;20434;-74
2021/08/01 00:52:37;;;;;;;0.88;0.88;;;16.20;99.90;;;;;;5015979;28;20396;-74
2021/08/01 00:55:12;;;;;;;1.73;1.27;;;16.20;99.90;;;;;;5007965;28;20416;-74
2021/08/01 00:57:38;;;;;;;1.50;1.40;;;16.20;99.90;;;;;;5013278;28;20404;-73
2021/08/01 01:00:12;;;;;;;1.10;1.10;;;16.20;99.90;;;;;;5016991;28;20484;-74
2021/08/01 01:02:38;;;;;;;2.80;1.00;;;16.20;99.90;;;;;;5033670;28;20438;-73
2021/08/01 01:05:19;;;;;;;1.10;1.10;;;16.20;99.90;;;;;;5015401;28;20408;-74
2021/08/01 01:08:11;;;;;;;1.02;1.02;;;16.20;99.90;;;;;;5012116;28;20403;-74
2021/08/01 01:11:00;;;;;;;0.90;0.90;;;16.20;99.90;;;;;;4987326;28;20443;-74
2021/08/01 01:13:37;;;;;;;1.30;1.20;;;16.20;99.90;;;;;;5001463;28;20401;-73
2021/08/01 01:16:03;;;;;;;2.70;1.40;;;16.20;99.90;;;;;;5003921;28;20415;-75
2021/08/01 01:18:50;;;;;;;1.50;1.10;;;16.20;99.90;;;;;;5018466;28;20405;-74
2021/08/01 01:21:23;;;;;;;0.90;0.90;;;16.20;99.90;;;;;;4997758;28;20532;-75
2021/08/01 01:24:07;;;;;;;1.43;1.33;;;16.20;99.90;;;;;;5015506;28;20419;-74
2021/08/01 01:27:08;;;;;;;1.53;1.43;;;16.20;99.90;;;;;;5016905;28;20397;-73
2021/08/01 01:30:00;;;;;;;1.40;1.30;;;16.10;99.90;;;;;;5012679;28;20481;-73
2021/08/01 01:32:34;;;;;;;1.57;1.20;;;16.00;99.90;;;;;;5015562;28;20468;-74
2021/08/01 01:35:03;;;;;;;1.10;1.10;;;16.00;99.90;;;;;;5005735;28;20780;-75
2021/08/01 01:37:32;;;;;;;1.10;1.10;;;15.90;99.90;;;;;;5008982;28;20414;-75
2021/08/01 01:40:01;;;;;;;1.10;1.10;;;15.80;99.90;;;;;;5010169;28;20395;-75
2021/08/01 01:42:39;;;;;;;1.10;1.10;;;15.80;99.90;;;;;;5006011;28;20402;-74
2021/08/01 01:45:07;;;;;;;1.00;1.00;;;15.80;99.90;;;;;;4982422;28;20401;-75
2021/08/01 01:47:35;;;;;;;1.07;1.07;;;15.70;99.90;;;;;;4985393;28;20538;-73
2021/08/01 01:50:02;;;;;;;1.40;1.30;;;15.70;99.90;;;;;;4996269;28;20466;-73
2021/08/01 01:52:28;;;;;;;2.67;1.95;;;15.60;99.90;;;;;;5009846;28;20452;-76
2021/08/01 01:55:19;;;;;;;1.70;1.60;;;15.60;99.90;;;;;;5010831;28;21075;-73
2021/08/01 01:57:47;;;;;;;1.60;1.50;;;15.50;99.90;;;;;;5008505;28;20398;-74
2021/08/01 02:00:14;;;;;;;1.83;1.42;;;15.50;99.90;;;;;;5008529;28;20407;-74
2021/08/01 02:02:43;;;;;;;1.30;1.30;;;15.50;99.90;;;;;;5003234;28;20402;-74
2021/08/01 02:05:13;;;;;;;1.58;1.38;;;15.50;99.90;;;;;;5012633;28;20411;-74
2021/08/01 02:07:57;;;;;;;1.50;1.40;;;15.40;99.90;;;;;;5007820;28;20502;-73
2021/08/01 02:10:53;;;;;;;1.20;1.20;;;15.40;99.90;;;;;;5009310;28;20492;-75
2021/08/01 02:13:21;;;;;;;2.20;1.40;;;15.50;99.90;;;;;;5038601;28;20457;-74
2021/08/01 02:15:49;;;;;;;1.30;1.20;;;15.50;99.90;;;;;;4993202;28;20774;-73
2021/08/01 02:18:23;;;;;;;1.20;1.10;;;15.50;99.90;;;;;;5036466;28;20394;-74
2021/08/01 02:20:49;;;;;;;1.17;1.15;;;15.50;99.90;;;;;;4995755;28;20950;-73
2021/08/01 02:23:36;;;;;;;1.20;1.20;;;15.60;99.90;;;;;;5008366;28;20410;-72
2021/08/01 02:26:03;;;;;;;1.35;1.25;;;15.60;99.90;;;;;;5033380;28;20399;-73
2021/08/01 02:28:29;;;;;;;1.13;1.13;;;15.60;99.90;;;;;;5010128;28;20471;-74
2021/08/01 02:30:57;;;;;;;0.90;0.90;;;15.60;99.90;;;;;;5007721;28;20399;-74
2021/08/01 02:33:27;;;;;;;1.00;1.00;;;15.50;99.90;;;;;;5008912;28;20397;-73
2021/08/01 02:36:03;;;;;;;2.20;1.15;;;15.50;99.90;;;;;;5017108;28;20427;-74
2021/08/01 02:38:33;;;;;;;1.10;1.10;;;15.60;99.90;;;;;;5037426;28;20407;-73
2021/08/01 02:41:06;;;;;;;1.20;1.10;;;15.60;99.90;;;;;;5005966;28;20438;-74
2021/08/01 02:43:32;;;;;;;1.25;1.17;;;15.60;99.90;;;;;;4984053;28;20393;-74
2021/08/01 02:45:58;;;;;;;1.40;1.30;;;15.60;99.90;;;;;;5002791;28;20857;-73
2021/08/01 02:48:24;;;;;;;1.10;1.10;;;15.60;99.90;;;;;;5008012;28;20438;-73
2021/08/01 02:50:56;;;;;;;1.48;1.38;;;15.70;99.90;;;;;;5050633;28;20411;-74
2021/08/01 02:53:23;;;;;;;1.00;1.00;;;15.70;99.90;;;;;;5010607;28;20503;-73
2021/08/01 02:55:49;;;;;;;1.60;1.13;;;15.70;99.90;;;;;;4999072;28;20413;-74
2021/08/01 02:58:16;;;;;;;1.15;1.05;;;15.70;99.90;;;;;;4990980;28;20480;-73
2021/08/01 03:00:47;;;;;;;1.00;1.00;;;15.70;99.90;;;;;;5007915;28;20486;-74
2021/08/01 03:03:15;;;;;;;1.90;1.00;;;15.70;99.90;;;;;;5025311;28;20418;-74
2021/08/01 03:05:43;;;;;;;1.10;1.00;;;15.60;99.90;;;;;;5007606;28;20418;-75
2021/08/01 03:08:12;;;;;;;1.10;1.10;;;15.60;99.90;;;;;;5007368;28;20926;-74
2021/08/01 03:10:45;;;;;;;1.00;1.00;;;15.60;99.90;;;;;;5025172;28;20421;-75
2021/08/01 03:13:11;;;;;;;1.08;1.05;;;15.60;99.90;;;;;;5023741;28;20905;-73
2021/08/01 03:15:37;;;;;;;0.98;0.98;;;15.60;99.90;;;;;;5008270;28;20421;-74
2021/08/01 03:18:05;;;;;;;0.90;0.90;;;15.60;99.90;;;;;;5015167;28;20441;-74
2021/08/01 03:20:31;;;;;;;0.90;0.90;;;15.70;99.90;;;;;;5003311;28;21354;-73
2021/08/01 03:23:15;;;;;;;0.80;0.80;;;15.70;99.90;;;;;;5006105;28;20409;-74
2021/08/01 03:26:12;;;;;;;1.02;1.02;;;15.80;99.90;;;;;;5010960;28;20415;-74
2021/08/01 03:28:42;;;;;;;0.90;0.90;;;15.80;99.90;;;;;;4995057;28;20436;-73
2021/08/01 03:31:07;;;;;;;1.10;1.10;;;15.70;99.90;;;;;;5015143;28;20454;-74
2021/08/01 03:33:43;;;;;;;0.95;0.95;;;15.70;99.90;;;;;;5009962;28;20452;-74
2021/08/01 03:36:09;;;;;;;1.52;1.30;;;15.60;99.90;;;;;;5015624;28;20409;-74
2021/08/01 03:38:53;;;;;;;0.98;0.98;;;15.60;99.90;;;;;;5015538;28;20833;-74
2021/08/01 03:41:34;;;;;;;1.02;1.02;;;15.60;99.90;;;;;;5007039;28;20412;-74
2021/08/01 03:43:59;;;;;;;1.00;1.00;;;15.60;99.90;;;;;;5006070;28;20431;-74
2021/08/01 03:46:25;;;;;;;0.90;0.90;;;15.60;99.90;;;;;;5022844;28;20441;-75
2021/08/01 03:48:51;;;;;;;1.00;1.00;;;15.70;99.90;;;;;;5004445;28;20436;-75
2021/08/01 03:51:16;;;;;;;1.30;0.90;;;15.70;99.90;;;;;;5003128;28;20767;-74
2021/08/01 03:53:42;;;;;;;1.00;1.00;;;15.70;99.90;;;;;;4997297;28;20405;-74
2021/08/01 03:56:08;;;;;;;1.20;1.10;;;15.70;99.90;;;;;;5006048;28;20417;-74
2021/08/01 03:58:33;;;;;;;1.27;1.17;;;15.60;99.90;;;;;;5003176;28;20408;-74
2021/08/01 04:00:59;;;;;;;1.10;1.10;;;15.60;99.90;;;;;;5006986;28;20395;-75
2021/08/01 04:03:25;;;;;;;1.10;1.10;;;15.60;99.90;;;;;;4993339;28;20393;-74
2021/08/01 04:05:50;;;;;;;1.20;1.10;;;15.60;99.90;;;;;;4991397;28;20773;-74
2021/08/01 04:08:16;;;;;;;1.13;1.10;;;15.60;99.90;;;;;;5000122;28;20397;-74
2021/08/01 04:10:42;;;;;;;1.27;1.17;;;15.70;99.90;;;;;;4999481;28;20522;-75
2021/08/01 04:13:07;;;;;;;1.00;1.00;;;15.70;99.90;;;;;;4995966;28;20409;-73
2021/08/01 04:15:33;;;;;;;0.97;0.97;;;15.80;99.90;;;;;;5015739;28;21144;-74
2021/08/01 04:18:02;;;;;;;1.23;1.13;;;15.90;99.90;;;;;;4989798;28;20397;-74
2021/08/01 04:20:28;;;;;;;1.20;1.20;;;15.90;99.90;;;;;;5002261;28;20410;-75
2021/08/01 04:22:54;;;;;;;1.23;1.13;;;15.90;99.90;;;;;;5038320;28;20450;-74
2021/08/01 04:25:20;;;;;;;1.15;1.15;;;16.00;99.90;;;;;;5006684;28;20406;-74
2021/08/01 04:27:46;;;;;;;1.05;1.05;;;16.00;99.90;;;;;;5010345;28;20900;-74
2021/08/01 04:30:12;;;;;;;1.20;1.10;;;16.00;99.90;;;;;;5011591;28;20474;-74
2021/08/01 04:32:37;;;;;;;1.10;1.10;;;16.00;99.90;;;;;;5021997;28;20430;-75
2021/08/01 04:35:04;;;;;;;1.75;1.45;;;15.90;99.90;;;;;;5016638;28;20924;-74
2021/08/01 04:37:30;;;;;;;1.20;1.20;;;15.90;99.90;;;;;;5004951;28;20426;-74
2021/08/01 04:39:55;;;;;;;1.00;1.00;;;16.00;99.90;;;;;;5024044;28;20446;-73
2021/08/01 04:42:21;;;;;;;1.05;1.05;;;16.00;99.90;;;;;;5018562;28;20754;-74
2021/08/01 04:44:47;;;;;;;1.30;1.20;;;16.00;99.90;;;;;;5013046;28;20909;-74
2021/08/01 04:47:14;;;;;;;1.00;1.00;;;16.10;99.90;;;;;;5007507;28;20452;-73
2021/08/01 04:49:40;;;;;;;1.33;1.25;;;16.10;99.90;;;;;;5042636;28;20402;-74
2021/08/01 04:52:06;;;;;;;0.93;0.93;;;16.10;99.90;;;;;;5009762;28;20395;-72
2021/08/01 04:54:35;;;;;;;1.50;1.20;;;16.10;99.90;;;;;;5042403;28;21110;-72
2021/08/01 04:57:00;;;;;;;1.10;1.10;;;16.20;99.90;;;;;;5041675;28;20430;-71
2021/08/01 04:59:26;;;;;;;0.87;0.87;;;16.20;99.90;;;;;;5009300;28;20410;-71
2021/08/01 05:01:52;;;;;;;1.00;1.00;;;16.30;99.90;;;;;;5015906;28;20395;-71
2021/08/01 05:04:19;;;;;;;1.10;1.10;;;16.40;99.90;;;;;;5042519;28;20919;-72
2021/08/01 05:06:45;;;;;;;3.00;1.02;;;16.50;99.90;;;;;;5015200;28;20391;-72
2021/08/01 05:09:11;;;;;;;1.10;1.10;;;16.50;99.90;;;;;;5021729;28;20402;-71
2021/08/01 05:11:37;;;;;;;0.90;0.90;;;16.50;99.90;;;;;;5020085;28;20391;-72
2021/08/01 05:14:02;;;;;;;1.00;1.00;;;16.60;99.90;;;;;;5023010;28;20906;-71
2021/08/01 05:16:28;;;;;;;1.10;1.10;;;16.60;99.90;;;;;;5000160;28;20418;-71
2021/08/01 05:18:54;;;;;;;0.90;0.90;;;16.60;99.90;;;;;;5031348;28;20405;-71
2021/08/01 05:21:21;;;;;;;1.00;1.00;;;16.60;99.90;;;;;;5020232;28;20410;-73
2021/08/01 05:23:47;;;;;;;1.20;1.20;;;16.70;99.90;;;;;;5009584;28;20404;-72
2021/08/01 05:26:12;;;;;;;1.20;1.20;;;16.60;99.90;;;;;;5008220;28;20394;-74
2021/08/01 05:28:38;;;;;;;2.70;1.48;;;16.70;99.90;;;;;;4980985;28;20475;-73
2021/08/01 05:31:04;;;;;;;2.17;1.30;;;16.80;99.90;;;;;;5020599;28;20409;-72
2021/08/01 05:33:29;;;;;;;1.38;1.27;;;16.80;99.90;;;;;;5041355;28;20401;-73
2021/08/01 05:35:55;;;;;;;1.60;1.50;;;16.90;99.90;;;;;;5026490;28;20426;-73
2021/08/01 05:38:21;;;;;;;1.50;1.40;;;16.90;99.90;;;;;;5018834;28;20395;-75
2021/08/01 05:40:46;;;;;;;1.80;1.15;;;17.00;99.90;;;;;;5002506;28;20457;-74
2021/08/01 05:43:12;;;;;;;1.70;1.40;;;17.00;99.90;;;;;;5015643;28;20405;-74
2021/08/01 05:45:38;;;;;;;1.52;1.05;;;17.00;99.90;;;;;;4993570;28;20501;-74
2021/08/01 05:48:04;;;;;;;1.43;1.20;;;17.10;99.90;;;;;;5003663;28;20401;-75
2021/08/01 05:50:30;;;;;;;1.30;1.20;;;17.20;99.90;;;;;;5007304;28;20809;-74
2021/08/01 05:52:55;;;;;;;0.93;0.93;;;17.20;99.90;;;;;;5024938;28;20387;-75
2021/08/01 05:55:21;;;;;;;1.40;1.30;;;17.10;99.90;;;;;;5005170;28;20424;-75
2021/08/01 05:57:47;;;;;;;1.48;1.38;;;17.20;99.90;;;;;;5011203;28;20398;-74
2021/08/01 06:00:13;;;;;;;1.40;1.30;;;17.20;99.90;;;;;;5014757;28;20403;-74
2021/08/01 06:02:39;;;;;;;1.10;1.10;;;17.30;99.90;;;;;;5001684;28;20415;-74
2021/08/01 06:05:05;;;;;;;1.75;1.65;;;17.30;99.90;;;;;;5006391;28;20996;-79
2021/08/01 06:07:30;;;;;;;1.80;1.70;;;17.30;99.90;;;;;;5009860;28;20406;-74
2021/08/01 06:09:56;;;;;;;1.20;1.20;;;17.40;99.90;;;;;;5023583;28;20407;-75
2021/08/01 06:12:22;;;;;;;1.10;1.10;;;17.40;99.90;;;;;;5009244;28;20408;-72
2021/08/01 06:14:57;;;;;;;1.27;1.27;;;17.50;99.90;;;;;;5004188;28;20427;-72
2021/08/01 06:17:23;;;;;;;1.40;1.30;;;17.50;99.90;;;;;;5006906;28;20472;-72
2021/08/01 06:19:53;;;;;;;1.25;1.15;;;17.40;99.90;;;;;;5014433;28;20413;-71
2021/08/01 06:22:19;;;;;;;1.60;1.50;;;17.40;99.90;;;;;;5002442;28;20394;-72
2021/08/01 06:24:45;;;;;;;1.37;1.27;;;17.40;99.90;;;;;;5040175;28;20413;-72
2021/08/01 06:27:11;;;;;;;1.10;1.10;;;17.30;99.90;;;;;;5017934;28;20409;-73
2021/08/01 06:29:36;;;;;;;1.30;1.23;;;17.20;99.90;;;;;;4999667;28;20412;-71
2021/08/01 06:32:14;;;;;;;1.17;1.17;;;17.40;99.90;;;;;;4936483;28;20420;-72
2021/08/01 06:34:50;;;;;;;1.20;1.10;;;17.50;99.90;;;;;;4955426;28;20780;-72
2021/08/01 06:37:16;;;;;;;1.20;1.20;;;17.70;99.90;;;;;;5023564;28;20398;-72
2021/08/01 06:39:43;;;;;;;1.10;1.10;;;17.80;99.90;;;;;;4995777;28;20968;-72
2021/08/01 06:42:09;;;;;;;1.20;1.08;;;17.90;99.90;;;;;;5015921;28;20410;-73
2021/08/01 06:44:34;;;;;;;1.20;1.13;;;17.90;99.90;;;;;;5008873;28;20399;-73
2021/08/01 06:47:00;;;;;;;1.30;1.20;;;17.90;99.90;;;;;;5004383;28;20479;-72
2021/08/01 06:49:26;;;;;;;1.80;1.30;;;17.90;99.90;;;;;;4999401;28;20387;-72
2021/08/01 06:51:51;;;;;;;1.33;1.23;;;17.90;99.90;;;;;;4997089;28;20486;-72
2021/08/01 06:54:17;;;;;;;1.20;1.20;;;17.90;99.90;;;;;;5017759;28;20411;-72
2021/08/01 06:56:43;;;;;;;1.00;1.00;;;17.90;99.90;;;;;;4999323;28;20446;-72
2021/08/01 06:59:08;;;;;;;1.40;1.30;;;17.90;99.90;;;;;;5019696;28;21203;-72
2021/08/01 07:01:37;;;;;;;2.10;1.27;;;17.90;99.90;;;;;;5002288;28;20388;-72
2021/08/01 07:04:03;;;;;;;1.83;1.40;;;18.00;99.90;;;;;;5000488;28;20421;-72
2021/08/01 07:06:29;;;;;;;1.15;1.15;;;18.00;99.90;;;;;;5002952;28;20426;-73
2021/08/01 07:08:54;;;;;;;1.52;1.42;;;18.00;99.90;;;;;;5014122;28;20394;-72
2021/08/01 07:11:20;;;;;;;1.10;1.10;;;18.10;99.90;;;;;;5001762;28;20399;-72
2021/08/01 07:13:47;;;;;;;1.33;1.23;;;18.10;99.90;;;;;;5014172;28;20388;-72
2021/08/01 07:16:13;;;;;;;1.13;1.13;;;18.10;99.90;;;;;;5001646;28;20474;-72
2021/08/01 07:18:39;;;;;;;1.20;1.20;;;18.10;99.90;;;;;;4984938;28;21439;-72
2021/08/01 07:21:04;;;;;;;1.70;1.27;;;18.20;99.90;;;;;;4999661;28;20399;-71
2021/08/01 07:23:30;;;;;;;1.02;1.02;;;18.20;99.90;;;;;;4999438;28;20403;-71
2021/08/01 07:25:56;;;;;;;1.80;1.30;;;18.20;99.90;;;;;;5002560;28;20415;-73
2021/08/01 07:28:21;;;;;;;1.38;1.27;;;18.20;99.90;;;;;;5018257;28;20435;-72
2021/08/01 07:30:48;;;;;;;1.10;1.10;;;18.20;99.90;;;;;;5030639;28;20502;-71
2021/08/01 07:33:14;;;;;;;1.77;1.23;;;18.20;99.90;;;;;;5003938;28;21005;-72
2021/08/01 07:35:41;;;;;;;1.33;1.23;;;18.30;99.90;;;;;;5002202;28;20442;-71
2021/08/01 07:38:07;;;;;;;1.10;1.10;;;18.40;99.90;;;;;;5008368;28;20403;-72
2021/08/01 07:40:32;;;;;;;1.20;1.20;;;18.40;99.90;;;;;;5020625;28;20414;-72
2021/08/01 07:42:58;;;;;;;1.93;1.30;;;18.50;99.90;;;;;;5013827;28;20958;-72
2021/08/01 07:45:31;;;;;;;1.00;1.00;;;18.40;99.90;;;;;;5002603;28;20395;-72
2021/08/01 07:47:57;;;;;;;1.20;1.20;;;18.50;99.90;;;;;;5003288;28;20401;-72
2021/08/01 07:50:23;;;;;;;1.20;1.20;;;18.60;99.90;;;;;;5031350;28;20388;-71
2021/08/01 07:52:48;;;;;;;1.67;1.40;;;18.60;99.90;;;;;;5019056;28;21034;-73
2021/08/01 07:55:15;;;;;;;1.80;1.50;;;18.70;99.90;;;;;;5003641;28;20475;-71
2021/08/01 07:57:42;;;;;;;1.48;1.38;;;18.60;99.90;;;;;;5006221;28;20447;-72
2021/08/01 08:00:08;;;;;;;1.30;1.30;;;18.70;99.90;;;;;;5002586;28;20397;-73
2021/08/01 08:02:43;;;;;;;1.35;1.33;;;18.80;99.90;;;;;;5009788;28;20411;-73
2021/08/01 08:05:09;;;;;;;1.52;1.42;;;18.90;99.90;;;;;;5012629;28;21572;-72
2021/08/01 08:07:35;;;;;;;1.38;1.30;;;18.90;99.90;;;;;;4993713;28;20765;-72
2021/08/01 08:10:00;;;;;;;1.70;1.60;;;18.90;99.90;;;;;;5008385;28;20404;-71
2021/08/01 08:12:26;;;;;;;1.50;1.40;;;19.00;99.90;;;;;;5013634;28;20411;-72
2021/08/01 08:14:52;;;;;;;1.50;1.40;;;19.10;99.90;;;;;;4992481;28;20422;-72
2021/08/01 08:17:18;;;;;;;1.30;1.20;;;19.20;99.90;;;;;;5005076;28;20391;-73
2021/08/01 08:19:43;;;;;;;1.17;1.17;;;19.30;99.90;;;;;;5045544;28;20409;-71
2021/08/01 08:22:09;;;;;;;1.40;1.30;;;19.50;99.90;;;;;;5004444;28;20408;-72
2021/08/01 08:24:35;;;;;;;2.10;1.33;;;19.60;99.90;;;;;;5023112;28;20416;-71
2021/08/01 08:27:01;;;;;;;1.63;1.53;;;19.80;99.90;;;;;;5001202;28;20399;-71
2021/08/01 08:29:26;;;;;;;1.80;1.70;;;19.80;99.90;;;;;;5001352;28;20479;-71
2021/08/01 08:31:53;;;;;;;1.70;1.60;;;19.90;99.90;;;;;;4997288;28;20408;-72
2021/08/01 08:34:19;;;;;;;1.45;1.35;;;19.90;99.90;;;;;;5017065;28;20406;-72
2021/08/01 08:36:47;;;;;;;3.53;1.47;;;19.90;99.90;;;;;;5006250;28;20403;-72
2021/08/01 08:39:22;;;;;;;1.42;1.33;;;20.00;99.90;;;;;;5013789;28;20419;-71
2021/08/01 08:41:48;;;;;;;1.65;1.55;;;20.10;99.90;;;;;;5019711;28;20403;-72
2021/08/01 08:44:14;;;;;;;1.40;1.30;;;20.10;99.90;;;;;;5016121;28;20524;-72
2021/08/01 08:46:40;;;;;;;1.50;1.40;;;19.80;99.90;;;;;;5012384;28;20404;-71
2021/08/01 08:49:11;;;;;;;1.67;1.20;;;19.80;99.90;;;;;;4980507;28;20972;-72
2021/08/01 08:51:43;;;;;;;1.60;1.50;;;20.00;99.90;;;;;;5013436;28;20422;-72
2021/08/01 08:54:11;;;;;;;1.50;1.40;;;20.00;99.90;;;;;;5008148;28;20408;-72
2021/08/01 08:56:37;;;;;;;1.17;1.10;;;20.00;99.90;;;;;;5031518;28;20411;-71
2021/08/01 08:59:02;;;;;;;1.40;1.30;;;20.20;99.90;;;;;;5013658;28;20414;-72
2021/08/01 09:01:28;;;;;;;1.63;1.20;;;20.20;99.90;;;;;;5002520;28;20502;-72
2021/08/01 09:03:54;;;;;;;1.35;1.25;;;20.40;99.90;;;;;;5042485;28;20421;-71
2021/08/01 09:06:19;;;;;;;1.10;1.10;;;20.40;99.90;;;;;;5034332;28;20401;-72
2021/08/01 09:08:45;;;;;;;0.90;0.90;;;20.50;99.90;;;;;;5027686;28;20470;-72
2021/08/01 09:11:11;;;;;;;1.00;1.00;;;20.60;99.90;;;;;;5018475;28;20413;-72
2021/08/01 09:13:44;;;;;;;3.72;1.45;;;20.70;99.90;;;;;;5010283;28;20486;-72
2021/08/01 09:16:10;;;;;;;1.27;1.27;;;20.70;99.90;;;;;;5025764;28;20457;-72
2021/08/01 09:18:35;;;;;;;1.30;1.20;;;20.60;99.90;;;;;;5023041;28;20403;-72
2021/08/01 09:21:01;;;;;;;1.17;1.17;;;20.60;99.90;;;;;;5019578;28;20411;-72
2021/08/01 09:23:27;;;;;;;1.47;1.37;;;20.60;99.90;;;;;;5023497;28;20399;-72
2021/08/01 09:26:00;;;;;;;1.20;1.20;;;20.70;99.90;;;;;;5023488;28;20403;-72
2021/08/01 09:28:26;;;;;;;1.40;1.30;;;20.70;99.90;;;;;;5004019;28;20430;-72
2021/08/01 09:31:02;;;;;;;1.05;1.05;;;20.70;99.90;;;;;;5016663;28;20401;-72
2021/08/01 09:33:34;;;;;;;1.30;1.20;;;20.80;99.90;;;;;;5004820;28;20553;-73
2021/08/01 09:36:16;;;;;;;0.90;0.90;;;20.90;99.90;;;;;;5021869;28;20517;-72
2021/08/01 09:38:52;;;;;;;1.00;1.00;;;20.90;99.90;;;;;;4994864;28;20404;-72
2021/08/01 09:41:37;;;;;;;1.50;1.40;;;20.90;99.90;;;;;;5005773;28;20406;-71
2021/08/01 09:44:09;;;;;;;1.30;1.20;;;20.90;99.90;;;;;;5000854;28;20465;-72
2021/08/01 09:46:48;;;;;;;1.30;1.20;;;21.00;99.90;;;;;;5003364;28;20407;-72
2021/08/01 09:49:19;;;;;;;1.25;1.23;;;21.00;99.90;;;;;;5023747;28;20390;-72
2021/08/01 09:51:51;;;;;;;1.40;1.30;;;20.90;99.90;;;;;;5005388;28;20980;-72
2021/08/01 09:54:19;;;;;;;2.90;1.30;;;20.90;99.90;;;;;;5009470;28;21163;-72
2021/08/01 09:56:57;;;;;;;1.40;1.30;;;20.90;99.90;;;;;;5012552;28;21049;-72
2021/08/01 09:59:30;;;;;;;1.10;1.10;;;21.00;99.90;;;;;;5004387;28;20426;-72
2021/08/01 10:02:04;;;;;;;1.38;1.38;;;21.10;99.90;;;;;;5005505;28;20442;-72
2021/08/01 10:04:33;;;;;;;1.27;1.20;;;21.10;99.90;;;;;;5006491;28;20407;-72
2021/08/01 10:07:13;;;;;;;1.50;1.40;;;21.10;99.90;;;;;;5013435;28;20471;-72
2021/08/01 10:09:45;;;;;;;1.05;1.05;;;21.00;99.90;;;;;;4999822;28;20399;-72
2021/08/01 10:12:12;;;;;;;1.50;1.40;;;21.00;99.90;;;;;;5015795;28;20500;-72
2021/08/01 10:14:39;;;;;;;1.08;1.08;;;21.00;99.90;;;;;;5004586;28;20391;-72
2021/08/01 10:17:05;;;;;;;1.00;1.00;;;21.10;99.90;;;;;;5009987;28;20454;-71
2021/08/01 10:19:31;;;;;;;1.00;1.00;;;21.30;99.90;;;;;;5027141;28;20397;-72
2021/08/01 10:21:58;;;;;;;1.17;1.08;;;21.30;99.90;;;;;;4993816;28;20471;-72
2021/08/01 10:24:25;;;;;;;0.90;0.90;;;21.30;99.90;;;;;;4977678;28;20508;-72
2021/08/01 10:26:54;;;;;;;5.13;1.00;;;21.30;99.90;;;;;;5002430;28;20478;-72
2021/08/01 10:29:38;;;;;;;1.98;1.80;;;21.40;99.90;;;;;;5011475;28;20389;-72
2021/08/01 10:32:06;;;;;;;1.10;1.10;;;21.50;99.90;;;;;;5018807;28;20399;-72
2021/08/01 10:34:40;;;;;;;1.92;1.10;;;21.50;99.90;;;;;;5005324;28;20914;-72
2021/08/01 10:37:08;;;;;;;1.30;1.20;;;21.50;99.90;;;;;;5004623;28;20417;-72
2021/08/01 10:39:35;;;;;;;1.20;1.17;;;21.40;99.90;;;;;;5003141;28;20476;-72
2021/08/01 10:42:06;;;;;;;1.10;1.10;;;21.50;99.90;;;;;;5005735;28;20531;-72
2021/08/01 10:44:31;;;;;;;1.30;1.20;;;21.50;99.90;;;;;;4995878;28;20391;-72
2021/08/01 10:46:57;;;;;;;1.40;1.30;;;21.60;99.90;;;;;;4994911;28;20789;-71
2021/08/01 10:49:23;;;;;;;1.00;1.00;;;21.60;99.90;;;;;;5003821;28;21021;-72
2021/08/01 10:51:48;;;;;;;1.03;0.90;;;21.60;99.90;;;;;;5037248;28;20438;-72
2021/08/01 10:54:20;;;;;;;1.03;1.03;;;21.60;99.90;;;;;;4998686;28;20395;-72
2021/08/01 10:56:48;;;;;;;1.20;1.10;;;21.50;99.90;;;;;;5023817;28;20916;-71
2021/08/01 10:59:45;;;;;;;1.05;1.00;;;21.50;99.90;;;;;;5024077;28;20403;-72
2021/08/01 11:02:14;;;;;;;3.05;1.17;;;21.50;99.90;;;;;;5025753;28;20414;-75
2021/08/01 11:04:40;;;;;;;1.40;1.30;;;21.60;99.90;;;;;;5008117;28;20395;-75
2021/08/01 11:07:06;;;;;;;1.05;1.05;;;21.60;99.90;;;;;;5006036;28;20419;-75
2021/08/01 11:09:35;;;;;;;1.10;1.10;;;21.60;99.90;;;;;;5000512;28;20869;-75
2021/08/01 11:12:19;;;;;;;1.30;1.20;;;21.50;99.90;;;;;;4994548;28;20474;-75
2021/08/01 11:14:53;;;;;;;1.40;1.30;;;21.40;99.90;;;;;;5029107;28;20484;-75
2021/08/01 11:17:20;;;;;;;1.27;1.20;;;21.30;99.90;;;;;;5021661;28;20401;-75
2021/08/01 11:19:46;;;;;;;1.48;1.38;;;21.40;99.90;;;;;;5014687;28;20401;-74
2021/08/01 11:22:40;;;;;;;1.30;1.20;;;21.40;99.90;;;;;;5013194;28;20411;-76
2021/08/01 11:25:25;;;;;;;1.30;1.25;;;21.40;99.90;;;;;;5027916;28;20458;-75
2021/08/01 11:28:10;;;;;;;1.10;1.10;;;21.40;99.90;;;;;;5022958;28;20438;-75
2021/08/01 11:33:40;;;;;;;1.48;1.38;;;21.30;99.90;;;;;;5022101;28;20507;-75
2021/08/01 11:36:18;;;;;;;1.40;1.30;;;21.30;99.90;;;;;;5004237;28;20414;-75
2021/08/01 11:38:52;;;;;;;1.40;1.30;;;21.20;99.90;;;;;;5001663;28;20409;-75
2021/08/01 11:41:27;;;;;;;1.40;1.30;;;21.30;99.90;;;;;;5035092;28;20413;-75
2021/08/01 11:44:22;;;;;;;1.30;1.20;;;21.30;99.90;;;;;;4999169;28;20417;-75
2021/08/01 11:47:02;;;;;;;1.40;1.30;;;21.30;99.90;;;;;;5019302;28;20422;-76
2021/08/01 11:49:34;;;;;;;1.25;1.17;;;21.30;99.90;;;;;;5021251;28;20469;-75
2021/08/01 11:52:02;;;;;;;2.07;1.47;;;21.20;99.90;;;;;;5017814;28;20419;-74
2021/08/01 11:54:34;;;;;;;1.50;1.40;;;21.20;99.90;;;;;;5005270;28;20740;-75
2021/08/01 11:57:07;;;;;;;1.63;1.50;;;21.20;99.90;;;;;;5023392;28;20403;-75
2021/08/01 11:59:33;;;;;;;1.25;1.25;;;21.20;99.90;;;;;;5006561;28;20403;-76
2021/08/01 12:01:59;;;;;;;1.30;1.27;;;21.30;99.90;;;;;;5022184;28;20778;-74
2021/08/01 12:04:25;;;;;;;1.13;1.13;;;21.30;99.90;;;;;;5022265;28;20399;-74
2021/08/01 12:06:55;;;;;;;1.10;1.10;;;21.30;99.90;;;;;;5021212;28;20410;-75
2021/08/01 12:09:28;;;;;;;1.30;1.20;;;21.30;99.90;;;;;;5000888;28;20399;-74
2021/08/01 12:12:01;;;;;;;1.23;1.20;;;21.30;99.90;;;;;;5006599;28;20498;-75
2021/08/01 12:14:31;;;;;;;1.50;1.40;;;21.40;99.90;;;;;;5021879;28;20399;-75
2021/08/01 12:17:01;;;;;;;1.30;1.13;;;21.30;99.90;;;;;;5009103;28;20415;-75
2021/08/01 12:19:28;;;;;;;1.52;1.42;;;21.20;99.90;;;;;;4993598;28;21222;-75
2021/08/01 12:21:57;;;;;;;1.30;1.20;;;21.20;99.90;;;;;;5016875;28;20800;-74
2021/08/01 12:24:30;;;;;;;1.35;1.25;;;21.20;99.90;;;;;;5004283;28;20996;-76
2021/08/01 12:27:01;;;;;;;1.77;1.50;;;21.20;99.90;;;;;;5018398;28;20403;-74
2021/08/01 12:29:31;;;;;;;1.60;1.50;;;21.20;99.90;;;;;;5014654;28;20474;-76
2021/08/01 12:31:57;;;;;;;1.63;1.52;;;21.10;99.90;;;;;;5010659;28;21132;-75
2021/08/01 12:34:23;;;;;;;2.10;1.58;;;21.00;99.90;;;;;;5040970;28;20405;-75
2021/08/01 12:36:49;;;;;;;1.50;1.40;;;20.80;99.90;;;;;;5004197;28;20430;-74
2021/08/01 12:39:18;;;;;;;1.60;1.50;;;20.70;99.90;;;;;;5013043;28;20408;-74
2021/08/01 12:41:47;;;;;;;1.50;1.40;;;20.70;99.90;;;;;;5021081;28;20406;-75
2021/08/01 12:44:14;;;;;;;1.58;1.48;;;20.60;99.90;;;;;;5022574;28;20912;-74
2021/08/01 12:46:39;;;;;;;1.70;1.60;;;20.50;99.90;;;;;;4998716;28;20443;-75
2021/08/01 12:49:05;;;;;;;1.47;1.37;;;20.50;99.90;;;;;;4993867;28;20818;-74
2021/08/01 12:51:31;;;;;;;1.40;1.30;;;20.40;99.90;;;;;;5004440;28;20448;-75
2021/08/01 12:53:58;;;;;;;1.77;1.67;;;20.30;99.90;;;;;;5020939;28;20403;-74
2021/08/01 12:56:24;;;;;;;1.50;1.40;;;20.20;99.90;;;;;;5008595;28;20502;-76
2021/08/01 12:58:49;;;;;;;1.88;1.50;;;20.10;99.90;;;;;;5038949;28;20403;-75
2021/08/01 13:01:15;;;;;;;1.60;1.50;;;19.90;99.90;;;;;;5005014;28;20392;-75